< < Back
Terminal Aerodrome Forecast


Current Version              Previous Versions:   1  2  3  4  5  6  7  8  9  

Terminal Aerodrome Forecast

643
FTUS42 KTAE 280500
TAFTLH
TAF
KTLH 280520Z 2806/2906 00000KT P6SM SKC
     FM281500 14005KT P6SM SCT060=



Latest METAR

395
SAUS80 KWBC 290300 RRB
MTRTLH
METAR KTLH 290253Z 00000KT 10SM CLR 23/18 A3001 RMK AO2 SLP159 LAST
AUGMENTED OBS T02330183 53016


USA.gov is the U.S. government's official web portal to all federal, state and local government web resources and services.